Time;durP1;ratioP1;P1;durP2;ratioP2;P2;SDS_P1;SDS_P2;PMS_P1;PMS_P2;Temp;Humidity;BMP_temperature;BMP_pressure;BME280_temperature;BME280_humidity;BME280_pressure;Samples;Min_cycle;Max_cycle;Signal;HPM_P1;HPM_P2
2021/08/09 00:01:17;;;;;;;7.25;2.22;;;;;;;13.31;100.00;96987.63;5015018;28;20077;-65
2021/08/09 00:03:42;;;;;;;5.68;2.90;;;;;;;13.34;100.00;96986.84;5019435;28;20498;-68
2021/08/09 00:06:08;;;;;;;5.57;2.30;;;;;;;13.38;100.00;96977.47;5015640;28;20520;-65
2021/08/09 00:08:33;;;;;;;7.63;1.88;;;;;;;13.49;100.00;96974.06;5030780;28;20080;-66
2021/08/09 00:10:59;;;;;;;3.85;1.80;;;;;;;13.32;100.00;96975.44;5019971;28;20056;-66
2021/08/09 00:13:25;;;;;;;1.58;1.20;;;;;;;13.35;100.00;96980.97;5020741;28;20495;-66
2021/08/09 00:15:50;;;;;;;6.15;1.80;;;;;;;13.37;100.00;96981.38;5022247;28;20076;-66
2021/08/09 00:18:15;;;;;;;5.30;1.52;;;;;;;13.44;100.00;96972.44;5018476;28;20486;-66
2021/08/09 00:20:41;;;;;;;7.97;1.77;;;;;;;13.49;100.00;96961.06;5023539;28;20124;-66
2021/08/09 00:23:06;;;;;;;3.08;1.50;;;;;;;13.53;100.00;96969.38;5031979;22;20062;-65
2021/08/09 00:25:32;;;;;;;3.47;1.58;;;;;;;13.54;100.00;96965.44;5022204;28;20065;-65
2021/08/09 00:27:57;;;;;;;6.03;1.83;;;;;;;13.54;100.00;96971.75;5023387;28;20485;-65
2021/08/09 00:30:23;;;;;;;2.20;1.50;;;;;;;13.52;100.00;96965.81;5013271;28;20442;-63
2021/08/09 00:32:49;;;;;;;3.40;2.28;;;;;;;13.52;100.00;96965.81;5028207;28;20064;-65
2021/08/09 00:35:14;;;;;;;5.22;1.70;;;;;;;13.45;100.00;96967.69;5022481;28;20042;-65
2021/08/09 00:37:40;;;;;;;5.13;1.65;;;;;;;13.28;100.00;96972.63;4994755;28;20498;-64
2021/08/09 00:40:06;;;;;;;5.55;2.40;;;;;;;12.92;100.00;96964.00;4993605;28;20042;-64
2021/08/09 00:42:32;;;;;;;6.20;1.90;;;;;;;12.60;100.00;96978.16;5009395;28;20048;-65
2021/08/09 00:44:57;;;;;;;5.07;2.03;;;;;;;12.66;100.00;96961.31;5001957;28;20490;-65
2021/08/09 00:47:23;;;;;;;4.50;1.90;;;;;;;12.78;100.00;96964.66;4997514;28;20163;-65
2021/08/09 00:49:48;;;;;;;3.38;1.75;;;;;;;12.85;100.00;96961.16;4994516;28;20119;-66
2021/08/09 00:52:14;;;;;;;5.47;1.88;;;;;;;12.95;100.00;96965.22;4991950;28;20060;-65
2021/08/09 00:54:40;;;;;;;9.60;2.10;;;;;;;13.01;100.00;96956.25;5002699;28;20065;-66
2021/08/09 00:57:05;;;;;;;3.50;2.00;;;;;;;13.01;100.00;96959.00;4993074;28;20164;-65
2021/08/09 00:59:31;;;;;;;4.80;2.10;;;;;;;13.12;100.00;96956.34;5002604;28;20096;-65
2021/08/09 01:01:57;;;;;;;3.53;1.70;;;;;;;13.12;100.00;96953.59;4999208;28;20068;-65
2021/08/09 01:04:23;;;;;;;4.10;2.78;;;;;;;13.18;100.00;96954.03;4995973;28;20751;-65
2021/08/09 01:06:49;;;;;;;7.13;1.88;;;;;;;13.23;100.00;96955.69;4999778;28;20069;-66
2021/08/09 01:09:38;;;;;;;3.65;2.08;;;;;;;13.22;100.00;96957.66;5000406;28;20045;-65
2021/08/09 01:12:39;;;;;;;3.35;1.77;;;;;;;13.17;100.00;96949.72;4991459;28;20495;-62
2021/08/09 01:15:13;;;;;;;5.43;1.83;;;;;;;13.22;100.00;96949.41;4996265;28;20052;-63
2021/08/09 01:17:45;;;;;;;1.90;1.42;;;;;;;13.25;100.00;96950.59;5002105;28;20725;-66
2021/08/09 01:20:26;;;;;;;6.18;2.15;;;;;;;13.29;100.00;96941.22;4988917;28;20042;-66
2021/08/09 01:23:18;;;;;;;6.45;2.60;;;;;;;13.18;100.00;96949.34;5001129;28;20042;-66
2021/08/09 01:26:09;;;;;;;4.35;1.65;;;;;;;13.18;100.00;96945.81;5007934;28;20037;-66
2021/08/09 01:28:36;;;;;;;3.45;1.75;;;;;;;13.13;100.00;96952.44;4997521;28;20056;-65
2021/08/09 01:31:01;;;;;;;4.03;1.80;;;;;;;13.13;100.00;96951.66;4998667;28;20132;-66
2021/08/09 01:33:30;;;;;;;4.03;1.80;;;;;;;13.11;100.00;96952.03;4989605;28;20048;-64
2021/08/09 01:35:57;;;;;;;13.52;2.55;;;;;;;13.11;100.00;96960.28;5000662;28;20046;-64
2021/08/09 01:38:25;;;;;;;8.93;2.25;;;;;;;12.73;100.00;96950.41;4982263;28;20054;-64
2021/08/09 01:40:56;;;;;;;3.53;1.88;;;;;;;12.29;100.00;96951.84;5004252;28;20038;-67
2021/08/09 01:43:22;;;;;;;8.90;2.25;;;;;;;12.08;100.00;96948.78;4984383;28;20174;-68
2021/08/09 01:45:48;;;;;;;3.65;2.40;;;;;;;12.03;100.00;96952.66;4995921;28;20053;-66
2021/08/09 01:48:14;;;;;;;5.20;2.20;;;;;;;11.98;100.00;96945.53;4984405;28;20402;-66
2021/08/09 01:50:41;;;;;;;8.32;2.53;;;;;;;11.93;100.00;96937.59;5002363;28;20058;-66
2021/08/09 01:53:07;;;;;;;4.57;2.40;;;;;;;11.91;100.00;96944.63;4996171;28;20193;-65
2021/08/09 01:55:33;;;;;;;8.20;2.78;;;;;;;11.98;100.00;96951.00;5030984;28;20041;-65
2021/08/09 01:57:59;;;;;;;9.50;1.88;;;;;;;12.20;100.00;96946.59;5033424;28;20034;-65
2021/08/09 02:00:24;;;;;;;3.65;2.15;;;;;;;12.28;100.00;96947.53;4995651;28;20073;-65
2021/08/09 02:02:52;;;;;;;6.10;2.55;;;;;;;12.37;100.00;96952.72;5001084;28;20041;-67
2021/08/09 02:05:18;;;;;;;3.22;1.83;;;;;;;12.45;100.00;96948.91;4993146;28;20069;-69
2021/08/09 02:07:46;;;;;;;5.97;1.95;;;;;;;12.58;100.00;96949.47;5000101;28;20402;-66
2021/08/09 02:10:15;;;;;;;4.07;1.85;;;;;;;12.60;100.00;96942.44;4986032;28;20043;-66
2021/08/09 02:12:57;;;;;;;5.60;2.10;;;;;;;12.57;100.00;96943.19;4997638;28;20042;-66
2021/08/09 02:15:56;;;;;;;4.68;1.92;;;;;;;12.58;100.00;96939.25;4988887;28;20535;-66
2021/08/09 02:18:30;;;;;;;2.40;1.55;;;;;;;12.61;100.00;96938.50;4987781;28;21028;-68
2021/08/09 02:21:01;;;;;;;2.20;1.52;;;;;;;12.60;100.00;96947.94;4999967;28;20045;-66
2021/08/09 02:23:45;;;;;;;4.35;1.73;;;;;;;12.58;100.00;96943.97;4987535;28;20111;-66
2021/08/09 02:26:14;;;;;;;5.50;2.10;;;;;;;12.58;100.00;96947.50;4995765;28;20038;-66
2021/08/09 02:28:43;;;;;;;5.40;1.70;;;;;;;12.58;100.00;96942.00;4993338;28;20188;-64
2021/08/09 02:31:10;;;;;;;6.82;1.80;;;;;;;12.57;100.00;96945.16;4993122;28;20395;-66
2021/08/09 02:33:37;;;;;;;3.78;1.52;;;;;;;12.52;100.00;96942.72;4999959;28;20046;-65
2021/08/09 02:36:04;;;;;;;3.17;1.60;;;;;;;12.41;100.00;96942.59;4997075;28;20173;-67
2021/08/09 02:38:31;;;;;;;3.03;1.70;;;;;;;12.27;100.00;96943.19;4994794;28;20068;-65
2021/08/09 02:40:59;;;;;;;2.60;1.80;;;;;;;12.16;100.00;96953.22;4999729;28;20038;-65
2021/08/09 02:43:26;;;;;;;4.30;2.42;;;;;;;12.12;100.00;96950.44;4987708;28;20045;-66
2021/08/09 02:45:53;;;;;;;4.55;1.98;;;;;;;12.08;100.00;96954.28;5019464;28;20150;-66
2021/08/09 02:48:20;;;;;;;5.90;1.70;;;;;;;12.16;100.00;96954.00;4995050;28;20041;-64
2021/08/09 02:50:47;;;;;;;5.13;1.90;;;;;;;12.18;100.00;96951.69;4999931;28;20050;-66
2021/08/09 02:53:17;;;;;;;2.78;1.92;;;;;;;12.16;100.00;96958.72;4976661;28;21505;-64
2021/08/09 02:55:44;;;;;;;;;;;;;;;12.19;100.00;96947.78;5032403;28;20115;-63
2021/08/09 02:58:09;;;;;;;3.55;1.63;;;;;;;12.29;100.00;96949.09;4993355;28;19914;-65
2021/08/09 03:00:36;;;;;;;3.22;1.83;;;;;;;12.32;100.00;96951.09;4995603;28;20084;-63
2021/08/09 03:03:02;;;;;;;4.65;1.92;;;;;;;12.36;100.00;96949.19;5000527;28;20572;-65
2021/08/09 03:05:29;;;;;;;5.28;1.88;;;;;;;12.32;100.00;96942.84;4996498;28;20048;-65
2021/08/09 03:07:56;;;;;;;4.60;2.00;;;;;;;12.29;100.00;96951.84;4999123;28;20042;-65
2021/08/09 03:10:22;;;;;;;4.30;1.63;;;;;;;12.23;100.00;96939.59;4993412;28;20066;-66
2021/08/09 03:12:55;;;;;;;9.43;2.13;;;;;;;12.36;100.00;96953.91;4971169;28;20119;-65
2021/08/09 03:15:20;;;;;;;3.55;1.50;;;;;;;12.38;100.00;96949.59;5016385;28;20042;-63
2021/08/09 03:17:47;;;;;;;4.55;1.45;;;;;;;12.39;100.00;96951.19;4991410;28;20042;-66
2021/08/09 03:20:12;;;;;;;5.75;1.88;;;;;;;12.38;100.00;96952.34;4991904;28;20041;-66
2021/08/09 03:22:38;;;;;;;5.10;2.08;;;;;;;12.37;100.00;96945.28;4999262;28;20131;-68
2021/08/09 03:25:04;;;;;;;6.13;1.92;;;;;;;12.36;100.00;96951.94;4997242;28;20044;-69
2021/08/09 03:27:30;;;;;;;3.72;1.67;;;;;;;12.35;100.00;96947.63;4999126;28;20065;-66
2021/08/09 03:29:56;;;;;;;3.90;1.73;;;;;;;12.35;100.00;96953.09;5021134;28;20487;-67
2021/08/09 03:32:21;;;;;;;7.20;2.00;;;;;;;12.34;100.00;96959.75;4990065;28;20062;-69
2021/08/09 03:34:46;;;;;;;5.32;1.90;;;;;;;12.23;100.00;96967.06;4995524;28;20046;-69
2021/08/09 03:37:12;;;;;;;4.03;1.98;;;;;;;12.16;100.00;96956.75;4995209;28;20536;-67
2021/08/09 03:39:37;;;;;;;3.08;1.95;;;;;;;12.10;100.00;96954.69;4990871;28;20080;-67
2021/08/09 03:42:04;;;;;;;4.30;2.10;;;;;;;12.06;100.00;96960.13;4992464;28;20127;-67
2021/08/09 03:44:30;;;;;;;7.43;2.15;;;;;;;12.02;100.00;96967.53;4998188;28;20058;-67
2021/08/09 03:46:55;;;;;;;4.40;1.90;;;;;;;12.02;100.00;96960.09;4993344;28;20042;-67
2021/08/09 03:49:20;;;;;;;5.30;2.08;;;;;;;12.03;100.00;96961.69;4998322;28;20151;-68
2021/08/09 03:51:46;;;;;;;4.93;1.92;;;;;;;11.93;100.00;96961.53;4995016;28;20048;-68
2021/08/09 03:54:11;;;;;;;4.25;1.80;;;;;;;11.87;100.00;96974.72;4999325;28;20125;-69
2021/08/09 03:56:37;;;;;;;4.07;1.77;;;;;;;11.88;100.00;96979.03;4997820;28;20054;-69
2021/08/09 03:59:03;;;;;;;2.35;1.73;;;;;;;11.88;100.00;96987.28;4998385;28;20065;-67
2021/08/09 04:01:28;;;;;;;4.97;1.80;;;;;;;11.93;100.00;96984.25;5017064;28;20469;-67
2021/08/09 04:03:54;;;;;;;2.45;1.77;;;;;;;12.01;100.00;96987.91;4999243;28;20131;-68
2021/08/09 04:06:20;;;;;;;2.92;2.13;;;;;;;12.06;100.00;96993.06;4998279;28;20041;-68
2021/08/09 04:08:48;;;;;;;3.25;1.85;;;;;;;12.11;100.00;96994.72;5003843;28;20052;-68
2021/08/09 04:11:14;;;;;;;4.13;2.08;;;;;;;12.11;100.00;96983.75;4994825;28;20556;-69
2021/08/09 04:13:41;;;;;;;3.28;1.60;;;;;;;12.07;100.00;96988.41;5002092;28;20557;-68
2021/08/09 04:16:08;;;;;;;3.03;2.10;;;;;;;12.01;100.00;96994.19;4995453;28;20104;-68
2021/08/09 04:18:33;;;;;;;4.47;1.70;;;;;;;11.92;100.00;96988.19;5013026;28;20033;-69
2021/08/09 04:20:59;;;;;;;4.18;1.83;;;;;;;11.88;100.00;96989.25;4994726;28;20157;-68
2021/08/09 04:23:25;;;;;;;3.25;1.92;;;;;;;11.80;100.00;96991.88;4994572;28;20520;-68
2021/08/09 04:25:50;;;;;;;4.03;1.80;;;;;;;11.67;100.00;96982.25;4995173;28;20050;-68
2021/08/09 04:28:15;;;;;;;4.07;1.90;;;;;;;11.63;100.00;96987.69;4992345;28;20034;-68
2021/08/09 04:30:41;;;;;;;3.30;1.85;;;;;;;11.62;100.00;96980.59;5002427;28;20140;-68
2021/08/09 04:33:06;;;;;;;2.95;1.75;;;;;;;11.48;100.00;96981.16;5004672;28;20050;-67
2021/08/09 04:35:32;;;;;;;3.55;2.17;;;;;;;11.43;100.00;96983.41;4999296;28;20506;-67
2021/08/09 04:37:57;;;;;;;6.13;2.22;;;;;;;11.41;100.00;96982.97;4994554;28;20049;-67
2021/08/09 04:40:23;;;;;;;8.13;2.13;;;;;;;11.55;100.00;96982.44;4999870;28;20701;-67
2021/08/09 04:42:48;;;;;;;5.70;2.00;;;;;;;11.65;100.00;96974.38;5001402;28;20797;-67
2021/08/09 04:45:14;;;;;;;5.15;2.58;;;;;;;11.77;100.00;96981.63;4986098;28;20046;-67
2021/08/09 04:47:39;;;;;;;5.30;2.20;;;;;;;11.89;100.00;96974.38;4993650;28;20091;-67
2021/08/09 04:50:05;;;;;;;8.07;1.92;;;;;;;12.01;100.00;96966.75;4996507;28;20574;-67
2021/08/09 04:52:30;;;;;;;4.25;2.05;;;;;;;12.09;100.00;96958.63;4995784;28;20042;-67
2021/08/09 04:54:56;;;;;;;3.38;2.15;;;;;;;11.48;100.00;96953.72;5000677;28;20529;-66
2021/08/09 04:57:21;;;;;;;3.50;2.25;;;;;;;11.33;100.00;96953.88;4984353;28;20834;-67
2021/08/09 04:59:47;;;;;;;4.25;2.25;;;;;;;11.58;100.00;96968.00;5000666;28;20191;-67
2021/08/09 05:02:13;;;;;;;5.20;2.10;;;;;;;11.98;100.00;96964.72;4992801;28;20121;-67
2021/08/09 05:04:38;;;;;;;4.10;2.30;;;;;;;12.28;100.00;96960.44;4991769;28;20051;-67
2021/08/09 05:07:04;;;;;;;4.78;2.00;;;;;;;12.53;100.00;96966.28;4988994;28;20046;-67
2021/08/09 05:09:33;;;;;;;6.35;2.10;;;;;;;12.96;100.00;96973.09;4987557;28;20129;-67
2021/08/09 05:11:59;;;;;;;4.67;1.90;;;;;;;13.55;97.69;96973.31;4993191;28;20399;-67
2021/08/09 05:14:24;;;;;;;5.00;1.70;;;;;;;14.30;93.19;96964.81;4988264;28;20301;-67
2021/08/09 05:16:49;;;;;;;2.20;1.52;;;;;;;15.13;91.01;96973.47;4991934;28;20046;-68
2021/08/09 05:19:15;;;;;;;3.05;1.35;;;;;;;16.29;84.65;96974.34;4987634;28;20042;-68
2021/08/09 05:21:40;;;;;;;1.35;0.98;;;;;;;17.53;76.57;96963.19;4995455;28;20046;-68
2021/08/09 05:24:06;;;;;;;7.68;1.70;;;;;;;18.21;72.15;96962.66;4971251;28;20050;-68
2021/08/09 05:26:32;;;;;;;1.52;0.85;;;;;;;19.81;64.10;96969.41;4978450;28;20042;-68
2021/08/09 05:28:58;;;;;;;3.60;1.23;;;;;;;19.73;62.86;96956.81;4998473;28;20212;-68
2021/08/09 05:31:25;;;;;;;2.63;1.10;;;;;;;19.56;64.25;96963.41;4996403;28;20506;-68
2021/08/09 05:33:51;;;;;;;4.45;1.00;;;;;;;21.32;59.25;96974.94;5001932;28;20033;-68
2021/08/09 05:36:22;;;;;;;3.42;0.85;;;;;;;22.75;53.64;96971.88;4996752;28;20065;-68
2021/08/09 05:38:48;;;;;;;4.88;0.95;;;;;;;23.69;51.00;96976.31;4993601;28;20050;-68
2021/08/09 05:41:13;;;;;;;2.10;0.80;;;;;;;23.80;49.14;96973.22;4994494;28;20041;-67
2021/08/09 05:43:39;;;;;;;4.32;0.80;;;;;;;21.82;53.72;96975.81;5016917;28;20565;-68
2021/08/09 05:46:04;;;;;;;4.13;0.93;;;;;;;22.53;52.47;96972.47;4988542;28;20049;-68
2021/08/09 05:48:29;;;;;;;2.95;0.90;;;;;;;23.99;49.06;96974.22;5000639;28;20042;-68
2021/08/09 05:50:55;;;;;;;2.63;0.80;;;;;;;23.20;50.98;96963.44;4997925;28;20045;-67
2021/08/09 05:53:20;;;;;;;4.68;0.90;;;;;;;23.11;53.48;96966.09;4991631;28;20490;-67
2021/08/09 05:55:46;;;;;;;4.57;0.80;;;;;;;22.90;53.51;96968.25;4980748;28;20072;-66
2021/08/09 05:58:11;;;;;;;5.07;1.02;;;;;;;24.54;48.82;96976.78;5007563;28;20525;-68
2021/08/09 06:00:37;;;;;;;3.88;0.90;;;;;;;25.80;45.43;96986.94;4994864;28;20113;-67
2021/08/09 06:03:03;;;;;;;5.80;0.85;;;;;;;26.65;43.92;96997.91;4996554;28;20069;-67
2021/08/09 06:05:29;;;;;;;5.53;1.33;;;;;;;27.38;41.60;96993.53;4989622;28;20091;-67
2021/08/09 06:07:54;;;;;;;4.32;0.90;;;;;;;27.48;41.37;97003.50;4992055;28;20062;-67
2021/08/09 06:10:21;;;;;;;2.00;0.73;;;;;;;27.78;40.71;96998.84;4982246;28;20751;-67
2021/08/09 06:12:48;;;;;;;2.30;1.10;;;;;;;28.10;39.55;96999.38;4987042;28;20050;-67
2021/08/09 06:15:13;;;;;;;3.72;1.27;;;;;;;28.29;39.10;97010.50;4987151;28;20451;-68
2021/08/09 06:17:38;;;;;;;4.75;0.98;;;;;;;28.70;39.43;96994.78;4996995;28;20124;-67
2021/08/09 06:20:04;;;;;;;2.28;0.60;;;;;;;29.28;38.35;96989.75;4987986;28;20121;-66
2021/08/09 06:22:30;;;;;;;5.65;0.70;;;;;;;27.77;39.52;96993.72;4989228;28;20046;-66
2021/08/09 06:24:55;;;;;;;5.22;0.85;;;;;;;28.74;38.23;96992.56;4988718;28;20055;-67
2021/08/09 06:27:21;;;;;;;2.75;1.00;;;;;;;27.95;41.21;96990.06;4990061;28;20603;-67
2021/08/09 06:29:47;;;;;;;1.67;0.80;;;;;;;29.46;37.53;96993.63;4999354;28;20049;-67
2021/08/09 06:32:12;;;;;;;2.08;0.80;;;;;;;27.00;43.10;96992.00;4985878;28;20046;-67
2021/08/09 06:34:38;;;;;;;1.65;0.65;;;;;;;23.74;50.56;96989.75;4992501;28;20051;-68
2021/08/09 06:37:04;;;;;;;4.30;0.73;;;;;;;24.97;47.83;96992.84;4988546;28;20065;-67
2021/08/09 06:39:29;;;;;;;3.58;0.70;;;;;;;25.08;48.44;96991.66;5000592;28;20061;-68
2021/08/09 06:41:57;;;;;;;1.95;0.82;;;;;;;24.66;49.38;96995.56;4998079;28;20049;-68
2021/08/09 06:44:23;;;;;;;2.58;1.00;;;;;;;23.95;53.02;96996.72;4993315;28;20045;-67
2021/08/09 06:46:49;;;;;;;2.05;0.70;;;;;;;25.17;50.16;96997.31;4995232;28;20049;-67
2021/08/09 06:49:14;;;;;;;2.88;0.90;;;;;;;24.85;47.33;96993.69;4994024;28;20050;-67
2021/08/09 06:51:40;;;;;;;3.60;1.08;;;;;;;25.90;45.39;97001.78;4998193;28;20107;-67
2021/08/09 06:54:05;;;;;;;4.63;0.70;;;;;;;26.47;44.50;96998.66;4992737;28;20375;-66
2021/08/09 06:56:30;;;;;;;3.53;0.70;;;;;;;26.12;44.49;96982.84;4999677;28;20069;-66
2021/08/09 06:58:56;;;;;;;1.90;0.73;;;;;;;26.65;44.53;96981.06;5000287;28;20131;-67
2021/08/09 07:01:22;;;;;;;5.05;2.40;;;;;;;20.71;60.04;96983.75;4994558;28;20818;-68
2021/08/09 07:03:48;;;;;;;4.28;2.05;;;;;;;20.27;63.70;96991.28;4999680;28;20045;-68
2021/08/09 07:06:18;;;;;;;5.63;0.95;;;;;;;23.82;52.53;96990.31;4995888;28;20045;-68
2021/08/09 07:08:43;;;;;;;3.05;1.10;;;;;;;24.72;49.92;96984.56;5000419;28;20057;-68
2021/08/09 07:11:09;;;;;;;6.07;0.90;;;;;;;25.51;47.24;96976.84;4994063;28;20046;-65
2021/08/09 07:13:34;;;;;;;2.63;0.82;;;;;;;26.28;45.44;96972.59;4999296;28;20045;-66
2021/08/09 07:15:59;;;;;;;3.80;0.80;;;;;;;26.59;44.57;96978.06;4998805;28;20038;-66
2021/08/09 07:18:25;;;;;;;13.95;6.30;;;;;;;26.59;44.42;96978.06;4989759;28;20050;-67
2021/08/09 07:20:50;;;;;;;6.00;1.08;;;;;;;22.57;54.14;96975.16;4999261;28;20033;-66
2021/08/09 07:23:16;;;;;;;2.35;0.80;;;;;;;24.11;51.20;96967.81;4990075;28;20050;-67
2021/08/09 07:25:42;;;;;;;4.55;1.13;;;;;;;23.87;53.29;96969.41;4994611;28;20041;-67
2021/08/09 07:28:07;;;;;;;3.05;1.10;;;;;;;26.26;45.49;96973.06;4991894;28;20056;-68
2021/08/09 07:30:33;;;;;;;2.78;0.68;;;;;;;27.60;40.90;96968.78;4996496;28;20054;-67
2021/08/09 07:32:59;;;;;;;3.15;0.90;;;;;;;25.67;44.98;96967.41;4999312;28;20073;-67
2021/08/09 07:35:24;;;;;;;1.80;0.70;;;;;;;25.52;46.47;96969.22;4993624;28;20041;-68
2021/08/09 07:37:52;;;;;;;2.13;0.77;;;;;;;27.05;43.96;96968.88;5000578;28;20542;-67
2021/08/09 07:40:17;;;;;;;3.60;0.75;;;;;;;25.70;47.61;96971.31;4995991;28;20037;-67
2021/08/09 07:42:43;;;;;;;2.35;0.80;;;;;;;26.83;42.78;96967.03;5001806;28;20045;-66
2021/08/09 07:45:09;;;;;;;6.40;1.00;;;;;;;22.56;54.41;96984.75;4994338;28;20046;-67
2021/08/09 07:47:34;;;;;;;4.57;1.23;;;;;;;25.19;48.75;96976.03;5000278;28;20046;-67
2021/08/09 07:50:00;;;;;;;3.25;0.93;;;;;;;26.16;44.88;96974.28;5000453;28;20053;-67
2021/08/09 07:52:25;;;;;;;2.50;0.73;;;;;;;27.83;40.33;96961.63;4993137;28;20077;-66
2021/08/09 07:54:50;;;;;;;1.75;0.70;;;;;;;27.11;41.82;96958.56;4999593;28;20514;-66
2021/08/09 07:57:16;;;;;;;4.45;0.80;;;;;;;26.45;41.85;96973.06;4993398;28;20133;-67
2021/08/09 07:59:41;;;;;;;3.63;0.80;;;;;;;24.30;45.04;96974.34;4984856;28;20414;-68
2021/08/09 08:02:07;;;;;;;2.47;0.90;;;;;;;24.57;46.41;96978.69;4993065;28;20061;-68
2021/08/09 08:04:32;;;;;;;5.22;0.90;;;;;;;26.04;43.16;96989.25;4981912;28;20046;-68
2021/08/09 08:06:58;;;;;;;3.83;1.00;;;;;;;25.35;45.19;96991.88;4999651;28;20041;-68
2021/08/09 08:09:24;;;;;;;4.40;0.95;;;;;;;26.61;43.23;96991.69;4992877;28;20652;-68
2021/08/09 08:11:49;;;;;;;1.80;0.70;;;;;;;25.63;43.90;96994.03;4982451;28;20069;-68
2021/08/09 08:14:15;;;;;;;5.82;0.60;;;;;;;24.83;46.70;96981.38;4988163;28;20395;-68
2021/08/09 08:16:40;;;;;;;2.63;0.65;;;;;;;26.72;42.38;96985.59;4999155;28;20045;-68
2021/08/09 08:19:06;;;;;;;1.67;0.73;;;;;;;26.92;40.88;96985.94;4976632;28;20049;-68
2021/08/09 08:21:32;;;;;;;3.22;0.65;;;;;;;26.55;41.99;96983.06;4996716;28;20069;-67
2021/08/09 08:23:58;;;;;;;1.80;0.80;;;;;;;27.51;40.51;96984.88;4999038;28;20129;-68
2021/08/09 08:26:23;;;;;;;1.60;0.70;;;;;;;27.54;40.70;96989.56;4993657;28;20500;-68
2021/08/09 08:28:48;;;;;;;2.83;0.82;;;;;;;27.77;39.38;96985.28;4996805;28;20175;-67
2021/08/09 08:31:14;;;;;;;4.60;1.13;;;;;;;26.42;41.74;96997.25;4993702;28;20038;-68
2021/08/09 08:33:39;;;;;;;3.15;0.80;;;;;;;27.08;40.82;96990.41;4999518;28;20129;-66
2021/08/09 08:36:05;;;;;;;2.42;0.70;;;;;;;27.77;38.20;96996.53;4994074;28;20080;-66
2021/08/09 08:38:30;;;;;;;2.80;0.60;;;;;;;27.77;37.33;96988.09;5003028;28;20575;-67
2021/08/09 08:40:57;;;;;;;1.35;0.63;;;;;;;28.19;36.63;96978.81;4997958;28;20080;-68
2021/08/09 08:43:27;;;;;;;2.28;0.70;;;;;;;28.48;37.23;96985.84;4997994;28;20049;-68
2021/08/09 08:45:58;;;;;;;2.45;0.60;;;;;;;27.87;39.06;96983.19;5002990;28;20046;-68
2021/08/09 08:48:24;;;;;;;2.10;0.73;;;;;;;29.11;37.16;96985.81;4991402;28;20057;-68
2021/08/09 08:50:51;;;;;;;4.25;0.88;;;;;;;27.53;40.05;96996.44;5002355;28;20041;-67
2021/08/09 08:53:18;;;;;;;2.80;0.82;;;;;;;27.59;40.42;96998.16;4996925;28;20053;-67
2021/08/09 08:55:43;;;;;;;2.47;0.65;;;;;;;27.53;41.08;96991.63;5002898;28;20050;-67
2021/08/09 08:58:09;;;;;;;2.63;0.75;;;;;;;28.18;37.42;96994.94;4995692;28;20042;-67
2021/08/09 09:00:44;;;;;;;2.00;0.65;;;;;;;28.92;36.64;96990.84;5001881;28;20402;-66
2021/08/09 09:03:17;;;;;;;7.57;0.82;;;;;;;28.52;34.67;96994.88;4997551;28;20038;-67
2021/08/09 09:06:05;;;;;;;1.73;0.68;;;;;;;27.22;37.34;96998.19;5002851;28;20041;-67
2021/08/09 09:08:44;;;;;;;5.10;0.70;;;;;;;26.28;38.78;97007.06;5001798;28;20053;-67
2021/08/09 09:11:11;;;;;;;;;;;;;;;25.00;41.56;97003.13;4996927;28;20047;-67
2021/08/09 09:13:52;;;;;;;5.93;0.82;;;;;;;26.16;40.07;97012.81;5001669;28;19917;-67
2021/08/09 09:16:17;;;;;;;3.33;0.70;;;;;;;24.06;45.15;97004.75;4995851;28;20503;-67
2021/08/09 09:18:59;;;;;;;4.32;0.90;;;;;;;25.85;43.54;96991.94;5000125;28;20048;-67
2021/08/09 09:21:35;;;;;;;3.13;1.13;;;;;;;26.31;42.54;96997.72;4991316;28;21001;-67
2021/08/09 09:24:20;;;;;;;1.80;0.90;;;;;;;26.63;42.20;96997.63;5002129;28;20033;-67
2021/08/09 09:26:52;;;;;;;3.58;0.90;;;;;;;24.11;47.60;96990.19;4994604;28;20078;-68
2021/08/09 09:29:18;;;;;;;5.10;0.95;;;;;;;23.87;48.56;96984.16;4987041;28;20041;-68
2021/08/09 09:31:46;;;;;;;3.17;0.95;;;;;;;25.86;44.19;96990.69;4999616;28;20037;-68
2021/08/09 09:34:17;;;;;;;2.05;0.80;;;;;;;26.59;39.86;96982.91;4995406;28;20038;-67
2021/08/09 09:36:45;;;;;;;1.75;0.70;;;;;;;25.63;40.14;96985.63;5001986;28;20072;-67
2021/08/09 09:39:35;;;;;;;3.80;0.73;;;;;;;25.61;41.48;96988.88;4996315;28;20038;-68
2021/08/09 09:42:04;;;;;;;6.10;1.45;;;;;;;26.44;42.44;96991.19;5001088;28;20718;-68
2021/08/09 09:44:31;;;;;;;2.70;0.87;;;;;;;25.62;41.98;96995.28;4998984;28;20045;-67
2021/08/09 09:47:25;;;;;;;5.38;1.98;;;;;;;26.42;42.54;96988.84;5001613;28;20121;-67
2021/08/09 09:49:56;;;;;;;6.60;2.15;;;;;;;26.51;41.60;96988.06;4997876;28;20050;-67
2021/08/09 09:52:35;;;;;;;3.63;0.98;;;;;;;26.19;43.00;96993.00;4985262;28;20754;-67
2021/08/09 09:55:07;;;;;;;2.67;0.85;;;;;;;25.89;44.81;96997.41;4997463;28;20052;-67
2021/08/09 09:57:33;;;;;;;3.35;1.20;;;;;;;25.62;45.92;97000.88;4999912;28;20045;-67
2021/08/09 09:59:59;;;;;;;4.05;1.30;;;;;;;25.80;45.79;97002.97;4996458;28;20052;-67
2021/08/09 10:02:28;;;;;;;2.65;0.82;;;;;;;24.97;46.99;97000.47;4994589;28;20038;-67
2021/08/09 10:04:54;;;;;;;1.77;0.90;;;;;;;25.46;45.46;97001.88;5001405;28;20459;-67
2021/08/09 10:07:25;;;;;;;3.53;1.17;;;;;;;26.06;44.40;97001.56;4995598;28;20320;-67
2021/08/09 10:09:53;;;;;;;4.20;1.15;;;;;;;27.00;42.07;97004.00;4995446;28;20521;-67
2021/08/09 10:12:23;;;;;;;2.70;0.90;;;;;;;27.10;40.93;96996.38;4994517;28;20049;-67
2021/08/09 10:14:48;;;;;;;;;;;;;;;26.43;43.92;97000.84;4996210;28;20127;-67
2021/08/09 10:17:16;;;;;;;3.45;0.80;;;;;;;26.46;42.64;97005.53;4995458;28;20378;-66
2021/08/09 10:19:47;;;;;;;2.25;0.80;;;;;;;26.49;42.79;96999.00;5001755;28;20038;-67
2021/08/09 10:22:13;;;;;;;5.30;1.15;;;;;;;26.84;40.68;96999.50;4993193;28;20473;-68
2021/08/09 10:24:40;;;;;;;5.15;1.30;;;;;;;26.80;41.78;96996.06;5000106;28;20133;-67
2021/08/09 10:27:07;;;;;;;6.35;1.67;;;;;;;26.98;41.36;97000.13;4994822;28;20088;-67
2021/08/09 10:29:32;;;;;;;4.30;1.20;;;;;;;25.79;42.80;97005.00;4999381;28;20065;-67
2021/08/09 10:32:18;;;;;;;11.60;8.73;;;;;;;26.74;41.09;96997.16;4997063;28;20053;-67
2021/08/09 10:34:43;;;;;;;3.55;0.90;;;;;;;26.19;43.39;96995.03;4995594;28;20084;-68
2021/08/09 10:37:16;;;;;;;7.57;5.60;;;;;;;26.03;40.89;96994.06;4995859;28;20042;-68
2021/08/09 10:40:05;;;;;;;11.07;6.13;;;;;;;26.48;41.30;96994.63;4982810;28;20046;-68
2021/08/09 10:42:31;;;;;;;;;;;;;;;26.72;40.78;96994.81;5001003;28;20125;-68
2021/08/09 10:44:57;;;;;;;2.43;1.07;;;;;;;26.23;41.33;96996.44;5001243;28;19914;-68
2021/08/09 10:47:57;;;;;;;5.65;2.65;;;;;;;26.50;40.88;97003.34;4996378;28;20153;-68
2021/08/09 10:50:26;;;;;;;6.30;3.80;;;;;;;26.41;41.46;96989.31;4974790;28;20046;-68
2021/08/09 10:52:53;;;;;;;1.67;0.73;;;;;;;26.35;39.62;96994.75;4980403;28;20403;-68
2021/08/09 10:55:30;;;;;;;1.40;0.70;;;;;;;26.21;40.58;97003.78;4986646;28;20037;-68
2021/08/09 10:58:00;;;;;;;4.90;2.92;;;;;;;26.30;39.06;96998.19;4999989;28;20057;-67
2021/08/09 11:00:37;;;;;;;;;;;;;;;25.54;40.79;96995.53;4994274;28;20494;-67
2021/08/09 11:03:04;;;;;;;1.27;0.65;;;;;;;25.66;41.92;96987.50;4995978;28;20374;-68
2021/08/09 11:05:30;;;;;;;4.03;1.95;;;;;;;25.79;40.13;96990.22;4997043;28;20049;-67
2021/08/09 11:08:20;;;;;;;5.05;2.22;;;;;;;25.33;39.89;96983.13;5001256;28;20053;-68
2021/08/09 11:10:55;;;;;;;3.20;2.10;;;;;;;25.05;40.13;96990.56;4998794;28;20060;-68
2021/08/09 11:13:24;;;;;;;2.30;0.90;;;;;;;24.47;42.36;96986.19;4993208;28;20092;-67
2021/08/09 11:16:04;;;;;;;4.63;1.67;;;;;;;24.92;40.53;96992.63;4990499;28;20065;-68
2021/08/09 11:18:31;;;;;;;3.03;1.83;;;;;;;25.35;40.68;96993.88;4993004;28;20038;-67
2021/08/09 11:21:00;;;;;;;5.50;2.17;;;;;;;25.22;39.54;96996.75;5000028;28;20052;-68
2021/08/09 11:23:26;;;;;;;3.15;0.70;;;;;;;25.05;41.40;96986.97;4984925;28;20436;-67
2021/08/09 11:25:51;;;;;;;2.65;1.27;;;;;;;25.05;39.51;96984.97;4999789;28;20049;-68
2021/08/09 11:28:23;;;;;;;3.85;1.50;;;;;;;25.50;38.53;96985.72;5005790;28;20506;-67
2021/08/09 11:30:50;;;;;;;2.70;1.10;;;;;;;25.40;39.08;96986.91;4998057;28;20659;-68
2021/08/09 11:33:27;;;;;;;3.70;1.40;;;;;;;25.33;38.39;96987.97;4995063;28;20069;-68
2021/08/09 11:36:00;;;;;;;7.00;2.08;;;;;;;25.04;39.50;96991.78;5000010;28;20100;-68